Terminal Aerodrome Forecast
Issued by NWS

Home | Current Version | Previous Version | Text Only | Print | Product List | Glossary On
Versions: 1 2 3 4 5 6 7 8 9 10 11 12 13 14 15 16 17 18 19 20 21 22 23 24 25
000
FTUS44 KLZK 190531
TAFLLQ
TAF
KLLQ 190531Z 1906/2006 VRB02KT P6SM SCT003 OVC007 WS020/20040KT
     FM191500 19013G20KT P6SM OVC015 WS020/20035KT
     FM192100 18012G18KT P6SM SCT015 BKN025=

USA.gov is the U.S. government's official web portal to all federal, state and local government web resources and services.